Terminal Aerodrome Forecast
Issued by NWS Wilmington, OH

Home | Current Version | Previous Version | Text Only | Print | Product List | Glossary On
Versions: 1 2 3 4 5 6 7 8 9 10 11 12 13 14
000
FTUS41 KILN 192000 AAA
TAFILN
TAF AMD
KILN 192019Z 1920/2018 04010G18KT P6SM SKC
     FM200000 05005KT P6SM SKC
     FM201200 09005KT P6SM SKC
     FM201500 15007KT P6SM BKN250=

USA.gov is the U.S. government's official web portal to all federal, state and local government web resources and services.